Brawley, California
Current Conditions -  °F | °C
As of 1:53 PM on Friday 31 Oct 2014 (Local Time) from KIPL Reporting Station
Clear Clear  
Wind Chill: 85°   Ceiling: Unl
Heat Index: 85°   Visibility: 10mi
Dew Point: 46°   Wind: 5mph
Humidity: 26%   Direction: 260°W
Pressure: 29.74"   Gusts: NA
Location:  32.98°N, 115.53°W
Report Text: KIPL 312053Z AUTO 26004KT 10SM CLR 29/08 A2974 RMK AO2 SLP072 T02940078 58035
Loading
Personal Weather Stations






























Interactive Weather Map
Tropical Storm Tracking
New forecast layout! Learn more

10-Day Weather Forecast

Advertisements
Track Severe Weather on mobile